Airfield :
LOGIN :

Register | Disclaimer

   EN    FR    IT 

 










Legend :    VFR   Marginal VFR   IFR   Intensive IFR   Very Intensive IFR
Visi :
Ceiling :
>= 8 km
>= 3000ft
5 to 8 km
1000 to 3000 ft
1500m to 5 km
500 to 1000 ft
800 to 1500m
200 to 500 ft
< 800m
< 200 ft
Symbols :   Thunderstorms  Fog  Heavy snow  Heavy precipitations  Wind > 20 kt
SIGMETs :     Misc.  Thunderstorms  Icing  Turbulence  Mountain Waves  Volcanic Ashes







- Airport Elevation : 138 ft
- IATA code : BIO


LEBB - Bilbao

CURRENT METAR :
  • 211530Z 33010KT 300V010 9999 BKN022 21/16 Q1019 NOSIG

EXPIRED METARs :
  • 211500Z 33008KT 300V360 9999 BKN022 20/16 Q1019 NOSIG
  • 211430Z 33008KT 300V360 9999 BKN022 21/16 Q1018 NOSIG
  • 211400Z 32009KT 280V350 9999 SCT022 21/16 Q1018 NOSIG
  • 211330Z 32009KT 280V340 9999 FEW028 22/17 Q1018 NOSIG
  • 211300Z 30006KT 270V340 CAVOK 22/16 Q1018 NOSIG

TAF TAF LEBB
Valid from the 21 at 12:00 until the 22 at 12:00 UTC


211100Z 2112/2212 10005KT CAVOK TX24/2114Z TN14/2206Z
TEMPO 2112/2118 32010KT
TEMPO 2120/2212 3000 RA SHRA BKN014 SCT030TCU
No reported NOTAMs for that airfield.



MET'MAP, your aeronautical weather chart ! - Copyright ORBIFLY December 2007 - Disclaimer

ORBIFLY MET'MAP TEAM :

Programming & Development : Alexandra Zaïnal
Concept & Development : Baudouin d'Aumeries
Co-Development & Prog : Marc-Olivier Méhu
Technical & hardware support : Manuel Goepfert

Contact : metmap@orbifly.com




SOURCES & CREDITS :

   NOAA